sensor_id;sensor_type;location;lat;lon;timestamp;temperature;humidity
70456;DHT22;57916;51.996;5.180;2024-01-10T00:00:29;0.80;47.80
70456;DHT22;57916;51.996;5.180;2024-01-10T00:02:56;0.80;47.90
70456;DHT22;57916;51.996;5.180;2024-01-10T00:05:23;0.80;48.10
70456;DHT22;57916;51.996;5.180;2024-01-10T00:07:50;0.80;48.20
70456;DHT22;57916;51.996;5.180;2024-01-10T00:10:17;0.80;48.20
70456;DHT22;57916;51.996;5.180;2024-01-10T00:12:44;0.80;48.40
70456;DHT22;57916;51.996;5.180;2024-01-10T00:15:11;0.80;48.60
70456;DHT22;57916;51.996;5.180;2024-01-10T00:17:40;0.90;48.80
70456;DHT22;57916;51.996;5.180;2024-01-10T00:20:07;0.90;48.80
70456;DHT22;57916;51.996;5.180;2024-01-10T00:22:35;0.90;48.70
70456;DHT22;57916;51.996;5.180;2024-01-10T00:25:02;0.90;48.90
70456;DHT22;57916;51.996;5.180;2024-01-10T00:27:31;1.00;49.00
70456;DHT22;57916;51.996;5.180;2024-01-10T00:29:58;1.00;49.10
70456;DHT22;57916;51.996;5.180;2024-01-10T00:32:25;1.00;49.40
70456;DHT22;57916;51.996;5.180;2024-01-10T00:34:52;1.00;49.30
70456;DHT22;57916;51.996;5.180;2024-01-10T00:37:19;1.00;49.40
70456;DHT22;57916;51.996;5.180;2024-01-10T00:39:46;1.10;49.40
70456;DHT22;57916;51.996;5.180;2024-01-10T00:42:13;1.10;49.40
70456;DHT22;57916;51.996;5.180;2024-01-10T00:44:40;1.10;49.30
70456;DHT22;57916;51.996;5.180;2024-01-10T00:47:07;1.00;49.30
70456;DHT22;57916;51.996;5.180;2024-01-10T00:49:34;1.10;49.50
70456;DHT22;57916;51.996;5.180;2024-01-10T00:52:01;1.10;49.60
70456;DHT22;57916;51.996;5.180;2024-01-10T00:54:28;1.10;49.80
70456;DHT22;57916;51.996;5.180;2024-01-10T00:56:56;1.10;49.80
70456;DHT22;57916;51.996;5.180;2024-01-10T00:59:23;1.00;49.80
70456;DHT22;57916;51.996;5.180;2024-01-10T01:01:49;1.00;50.10
70456;DHT22;57916;51.996;5.180;2024-01-10T01:04:17;1.00;50.30
70456;DHT22;57916;51.996;5.180;2024-01-10T01:06:44;1.00;50.60
70456;DHT22;57916;51.996;5.180;2024-01-10T01:09:11;1.00;50.50
70456;DHT22;57916;51.996;5.180;2024-01-10T01:11:40;0.90;50.60
70456;DHT22;57916;51.996;5.180;2024-01-10T01:14:07;0.90;50.80
70456;DHT22;57916;51.996;5.180;2024-01-10T01:16:34;0.90;50.80
70456;DHT22;57916;51.996;5.180;2024-01-10T01:19:01;0.80;50.80
70456;DHT22;57916;51.996;5.180;2024-01-10T01:21:30;0.80;51.10
70456;DHT22;57916;51.996;5.180;2024-01-10T01:23:57;0.80;51.20
70456;DHT22;57916;51.996;5.180;2024-01-10T01:26:24;0.80;51.30
70456;DHT22;57916;51.996;5.180;2024-01-10T01:28:51;0.70;51.30
70456;DHT22;57916;51.996;5.180;2024-01-10T01:31:18;0.70;51.40
70456;DHT22;57916;51.996;5.180;2024-01-10T01:33:45;0.70;51.50
70456;DHT22;57916;51.996;5.180;2024-01-10T01:36:12;0.70;51.60
70456;DHT22;57916;51.996;5.180;2024-01-10T01:38:39;0.60;51.50
70456;DHT22;57916;51.996;5.180;2024-01-10T01:41:06;0.60;51.50
70456;DHT22;57916;51.996;5.180;2024-01-10T01:43:33;0.60;51.40
70456;DHT22;57916;51.996;5.180;2024-01-10T01:46:01;0.60;51.50
70456;DHT22;57916;51.996;5.180;2024-01-10T01:48:29;0.60;51.50
70456;DHT22;57916;51.996;5.180;2024-01-10T01:51:00;0.60;51.50
70456;DHT22;57916;51.996;5.180;2024-01-10T01:53:29;0.50;51.50
70456;DHT22;57916;51.996;5.180;2024-01-10T01:55:57;0.50;51.60
70456;DHT22;57916;51.996;5.180;2024-01-10T01:58:27;0.50;51.80
70456;DHT22;57916;51.996;5.180;2024-01-10T02:00:54;0.50;52.80
70456;DHT22;57916;51.996;5.180;2024-01-10T02:03:21;0.50;51.90
70456;DHT22;57916;51.996;5.180;2024-01-10T02:05:48;0.50;51.80
70456;DHT22;57916;51.996;5.180;2024-01-10T02:08:16;0.50;52.00
70456;DHT22;57916;51.996;5.180;2024-01-10T02:10:43;0.50;51.90
70456;DHT22;57916;51.996;5.180;2024-01-10T02:13:10;0.50;51.90
70456;DHT22;57916;51.996;5.180;2024-01-10T02:15:38;0.50;52.00
70456;DHT22;57916;51.996;5.180;2024-01-10T02:18:05;0.50;51.90
70456;DHT22;57916;51.996;5.180;2024-01-10T02:20:33;0.50;51.90
70456;DHT22;57916;51.996;5.180;2024-01-10T02:23:00;0.50;51.90
70456;DHT22;57916;51.996;5.180;2024-01-10T02:25:27;0.50;51.80
70456;DHT22;57916;51.996;5.180;2024-01-10T02:27:53;0.50;52.00
70456;DHT22;57916;51.996;5.180;2024-01-10T02:30:20;0.50;51.80
70456;DHT22;57916;51.996;5.180;2024-01-10T02:32:47;0.50;51.90
70456;DHT22;57916;51.996;5.180;2024-01-10T02:35:14;0.50;52.10
70456;DHT22;57916;51.996;5.180;2024-01-10T02:37:41;0.50;52.10
70456;DHT22;57916;51.996;5.180;2024-01-10T02:40:09;0.60;52.10
70456;DHT22;57916;51.996;5.180;2024-01-10T02:42:36;0.60;52.10
70456;DHT22;57916;51.996;5.180;2024-01-10T02:45:03;0.60;52.20
70456;DHT22;57916;51.996;5.180;2024-01-10T02:47:31;0.70;52.30
70456;DHT22;57916;51.996;5.180;2024-01-10T02:49:58;0.70;52.20
70456;DHT22;57916;51.996;5.180;2024-01-10T02:52:25;0.70;52.50
70456;DHT22;57916;51.996;5.180;2024-01-10T02:54:52;0.70;53.60
70456;DHT22;57916;51.996;5.180;2024-01-10T02:57:19;0.70;52.60
70456;DHT22;57916;51.996;5.180;2024-01-10T02:59:46;0.70;52.60
70456;DHT22;57916;51.996;5.180;2024-01-10T03:02:12;0.70;52.80
70456;DHT22;57916;51.996;5.180;2024-01-10T03:04:41;0.70;52.80
70456;DHT22;57916;51.996;5.180;2024-01-10T03:07:08;0.70;52.90
70456;DHT22;57916;51.996;5.180;2024-01-10T03:09:35;0.70;53.00
70456;DHT22;57916;51.996;5.180;2024-01-10T03:12:02;0.70;53.00
70456;DHT22;57916;51.996;5.180;2024-01-10T03:14:29;0.70;54.10
70456;DHT22;57916;51.996;5.180;2024-01-10T03:16:56;0.70;53.20
70456;DHT22;57916;51.996;5.180;2024-01-10T03:19:23;0.70;53.40
70456;DHT22;57916;51.996;5.180;2024-01-10T03:21:50;0.70;53.50
70456;DHT22;57916;51.996;5.180;2024-01-10T03:24:17;0.70;53.40
70456;DHT22;57916;51.996;5.180;2024-01-10T03:26:44;0.70;53.50
70456;DHT22;57916;51.996;5.180;2024-01-10T03:29:10;0.80;53.50
70456;DHT22;57916;51.996;5.180;2024-01-10T03:31:37;0.80;53.40
70456;DHT22;57916;51.996;5.180;2024-01-10T03:34:04;0.80;53.40
70456;DHT22;57916;51.996;5.180;2024-01-10T03:36:31;0.70;53.50
70456;DHT22;57916;51.996;5.180;2024-01-10T03:38:58;0.70;53.60
70456;DHT22;57916;51.996;5.180;2024-01-10T03:41:25;0.70;53.70
70456;DHT22;57916;51.996;5.180;2024-01-10T03:43:52;0.70;53.80
70456;DHT22;57916;51.996;5.180;2024-01-10T03:46:21;0.60;53.90
70456;DHT22;57916;51.996;5.180;2024-01-10T03:48:48;0.70;54.10
70456;DHT22;57916;51.996;5.180;2024-01-10T03:51:16;0.60;54.10
70456;DHT22;57916;51.996;5.180;2024-01-10T03:53:44;0.60;54.10
70456;DHT22;57916;51.996;5.180;2024-01-10T03:56:15;0.60;54.20
70456;DHT22;57916;51.996;5.180;2024-01-10T03:58:42;0.60;55.30
70456;DHT22;57916;51.996;5.180;2024-01-10T04:01:09;0.50;54.40
70456;DHT22;57916;51.996;5.180;2024-01-10T04:03:36;0.50;54.50
70456;DHT22;57916;51.996;5.180;2024-01-10T04:06:03;0.50;54.70
70456;DHT22;57916;51.996;5.180;2024-01-10T04:08:31;0.40;54.90
70456;DHT22;57916;51.996;5.180;2024-01-10T04:10:58;0.50;55.00
70456;DHT22;57916;51.996;5.180;2024-01-10T04:13:25;0.50;55.00
70456;DHT22;57916;51.996;5.180;2024-01-10T04:15:53;0.40;55.00
70456;DHT22;57916;51.996;5.180;2024-01-10T04:18:20;0.40;55.00
70456;DHT22;57916;51.996;5.180;2024-01-10T04:20:48;0.30;55.20
70456;DHT22;57916;51.996;5.180;2024-01-10T04:23:15;0.30;55.60
70456;DHT22;57916;51.996;5.180;2024-01-10T04:25:42;0.30;55.60
70456;DHT22;57916;51.996;5.180;2024-01-10T04:28:09;0.30;55.60
70456;DHT22;57916;51.996;5.180;2024-01-10T04:30:36;0.30;55.50
70456;DHT22;57916;51.996;5.180;2024-01-10T04:33:03;0.40;56.50
70456;DHT22;57916;51.996;5.180;2024-01-10T04:35:30;0.40;55.50
70456;DHT22;57916;51.996;5.180;2024-01-10T04:37:58;0.40;56.30
70456;DHT22;57916;51.996;5.180;2024-01-10T04:40:25;0.40;55.30
70456;DHT22;57916;51.996;5.180;2024-01-10T04:42:52;0.40;55.40
70456;DHT22;57916;51.996;5.180;2024-01-10T04:45:19;0.30;55.30
70456;DHT22;57916;51.996;5.180;2024-01-10T04:47:46;0.30;55.30
70456;DHT22;57916;51.996;5.180;2024-01-10T04:50:13;0.30;55.20
70456;DHT22;57916;51.996;5.180;2024-01-10T04:52:40;0.20;56.20
70456;DHT22;57916;51.996;5.180;2024-01-10T04:55:08;0.20;55.30
70456;DHT22;57916;51.996;5.180;2024-01-10T04:57:35;0.10;55.50
70456;DHT22;57916;51.996;5.180;2024-01-10T05:00:03;0.10;55.70
70456;DHT22;57916;51.996;5.180;2024-01-10T05:02:31;0.10;55.80
70456;DHT22;57916;51.996;5.180;2024-01-10T05:04:59;0.10;55.80
70456;DHT22;57916;51.996;5.180;2024-01-10T05:07:26;0.20;55.90
70456;DHT22;57916;51.996;5.180;2024-01-10T05:09:54;0.20;55.80
70456;DHT22;57916;51.996;5.180;2024-01-10T05:12:21;0.10;55.80
70456;DHT22;57916;51.996;5.180;2024-01-10T05:14:48;0.20;55.80
70456;DHT22;57916;51.996;5.180;2024-01-10T05:17:15;0.20;55.80
70456;DHT22;57916;51.996;5.180;2024-01-10T05:19:42;0.20;55.60
70456;DHT22;57916;51.996;5.180;2024-01-10T05:22:09;0.20;55.50
70456;DHT22;57916;51.996;5.180;2024-01-10T05:24:36;0.30;55.40
70456;DHT22;57916;51.996;5.180;2024-01-10T05:27:03;0.30;55.40
70456;DHT22;57916;51.996;5.180;2024-01-10T05:29:30;0.30;55.20
70456;DHT22;57916;51.996;5.180;2024-01-10T05:31:57;0.30;55.10
70456;DHT22;57916;51.996;5.180;2024-01-10T05:34:24;0.30;55.00
70456;DHT22;57916;51.996;5.180;2024-01-10T05:36:51;0.20;54.90
70456;DHT22;57916;51.996;5.180;2024-01-10T05:39:19;0.20;55.00
70456;DHT22;57916;51.996;5.180;2024-01-10T05:41:47;0.20;55.00
70456;DHT22;57916;51.996;5.180;2024-01-10T05:44:14;0.30;55.10
70456;DHT22;57916;51.996;5.180;2024-01-10T05:46:41;0.30;55.10
70456;DHT22;57916;51.996;5.180;2024-01-10T05:49:09;0.20;55.00
70456;DHT22;57916;51.996;5.180;2024-01-10T05:51:37;0.10;55.10
70456;DHT22;57916;51.996;5.180;2024-01-10T05:54:04;0.00;55.20
70456;DHT22;57916;51.996;5.180;2024-01-10T05:56:31;-0.10;55.40
70456;DHT22;57916;51.996;5.180;2024-01-10T05:58:58;-0.10;55.60
70456;DHT22;57916;51.996;5.180;2024-01-10T06:01:25;-0.10;55.70
70456;DHT22;57916;51.996;5.180;2024-01-10T06:03:52;-0.10;55.70
70456;DHT22;57916;51.996;5.180;2024-01-10T06:06:19;-0.10;55.70
70456;DHT22;57916;51.996;5.180;2024-01-10T06:08:46;-0.10;55.80
70456;DHT22;57916;51.996;5.180;2024-01-10T06:11:13;0.00;55.80
70456;DHT22;57916;51.996;5.180;2024-01-10T06:13:40;0.00;55.80
70456;DHT22;57916;51.996;5.180;2024-01-10T06:16:19;0.00;55.70
70456;DHT22;57916;51.996;5.180;2024-01-10T06:18:47;0.00;55.70
70456;DHT22;57916;51.996;5.180;2024-01-10T06:21:14;0.10;55.70
70456;DHT22;57916;51.996;5.180;2024-01-10T06:23:41;0.10;55.70
70456;DHT22;57916;51.996;5.180;2024-01-10T06:26:08;0.10;55.70
70456;DHT22;57916;51.996;5.180;2024-01-10T06:28:36;0.10;55.70
70456;DHT22;57916;51.996;5.180;2024-01-10T06:31:03;0.10;55.70
70456;DHT22;57916;51.996;5.180;2024-01-10T06:33:31;0.10;55.70
70456;DHT22;57916;51.996;5.180;2024-01-10T06:35:58;0.10;55.70
70456;DHT22;57916;51.996;5.180;2024-01-10T06:38:25;0.10;55.80
70456;DHT22;57916;51.996;5.180;2024-01-10T06:40:53;0.10;55.60
70456;DHT22;57916;51.996;5.180;2024-01-10T06:43:20;0.00;55.60
70456;DHT22;57916;51.996;5.180;2024-01-10T06:45:46;0.00;55.70
70456;DHT22;57916;51.996;5.180;2024-01-10T06:48:14;0.00;55.80
70456;DHT22;57916;51.996;5.180;2024-01-10T06:50:41;0.00;55.90
70456;DHT22;57916;51.996;5.180;2024-01-10T06:53:08;0.00;56.00
70456;DHT22;57916;51.996;5.180;2024-01-10T06:55:35;0.00;56.00
70456;DHT22;57916;51.996;5.180;2024-01-10T06:58:03;0.00;56.00
70456;DHT22;57916;51.996;5.180;2024-01-10T07:00:30;0.00;56.10
70456;DHT22;57916;51.996;5.180;2024-01-10T07:03:01;0.00;56.10
70456;DHT22;57916;51.996;5.180;2024-01-10T07:05:29;0.00;56.10
70456;DHT22;57916;51.996;5.180;2024-01-10T07:07:59;0.00;56.00
70456;DHT22;57916;51.996;5.180;2024-01-10T07:10:26;0.00;56.20
70456;DHT22;57916;51.996;5.180;2024-01-10T07:12:55;0.00;56.10
70456;DHT22;57916;51.996;5.180;2024-01-10T07:15:22;0.10;56.00
70456;DHT22;57916;51.996;5.180;2024-01-10T07:17:49;0.00;55.80
70456;DHT22;57916;51.996;5.180;2024-01-10T07:20:16;0.00;55.90
70456;DHT22;57916;51.996;5.180;2024-01-10T07:22:43;0.00;56.00
70456;DHT22;57916;51.996;5.180;2024-01-10T07:25:11;0.00;56.10
70456;DHT22;57916;51.996;5.180;2024-01-10T07:27:41;-0.10;56.10
70456;DHT22;57916;51.996;5.180;2024-01-10T07:30:09;-0.10;56.40
70456;DHT22;57916;51.996;5.180;2024-01-10T07:32:43;-0.10;56.40
70456;DHT22;57916;51.996;5.180;2024-01-10T07:35:11;0.00;56.30
70456;DHT22;57916;51.996;5.180;2024-01-10T07:37:40;0.00;56.20
70456;DHT22;57916;51.996;5.180;2024-01-10T07:40:08;-0.10;57.10
70456;DHT22;57916;51.996;5.180;2024-01-10T07:42:35;-0.10;56.00
70456;DHT22;57916;51.996;5.180;2024-01-10T07:45:03;-0.20;55.90
70456;DHT22;57916;51.996;5.180;2024-01-10T07:47:32;-0.20;55.90
70456;DHT22;57916;51.996;5.180;2024-01-10T07:50:01;-0.30;56.00
70456;DHT22;57916;51.996;5.180;2024-01-10T07:52:28;-0.30;56.40
70456;DHT22;57916;51.996;5.180;2024-01-10T07:54:55;-0.30;56.60
70456;DHT22;57916;51.996;5.180;2024-01-10T07:57:21;-0.30;56.70
70456;DHT22;57916;51.996;5.180;2024-01-10T07:59:48;-0.30;56.40
70456;DHT22;57916;51.996;5.180;2024-01-10T08:02:16;-0.30;56.20
70456;DHT22;57916;51.996;5.180;2024-01-10T08:04:43;-0.40;56.30
70456;DHT22;57916;51.996;5.180;2024-01-10T08:07:10;-0.50;56.40
70456;DHT22;57916;51.996;5.180;2024-01-10T08:09:37;-0.50;56.50
70456;DHT22;57916;51.996;5.180;2024-01-10T08:12:05;-0.60;56.40
70456;DHT22;57916;51.996;5.180;2024-01-10T08:14:32;-0.60;56.60
70456;DHT22;57916;51.996;5.180;2024-01-10T08:16:59;-0.60;56.80
70456;DHT22;57916;51.996;5.180;2024-01-10T08:19:27;-0.60;56.80
70456;DHT22;57916;51.996;5.180;2024-01-10T08:21:54;-0.60;56.60
70456;DHT22;57916;51.996;5.180;2024-01-10T08:24:21;-0.60;56.50
70456;DHT22;57916;51.996;5.180;2024-01-10T08:26:48;-0.60;56.20
70456;DHT22;57916;51.996;5.180;2024-01-10T08:29:18;-0.50;56.30
70456;DHT22;57916;51.996;5.180;2024-01-10T08:31:47;-0.40;56.30
70456;DHT22;57916;51.996;5.180;2024-01-10T08:34:14;-0.40;56.10
70456;DHT22;57916;51.996;5.180;2024-01-10T08:36:41;-0.30;56.10
70456;DHT22;57916;51.996;5.180;2024-01-10T08:39:08;-0.30;55.90
70456;DHT22;57916;51.996;5.180;2024-01-10T08:41:37;-0.30;55.80
70456;DHT22;57916;51.996;5.180;2024-01-10T08:44:10;-0.20;55.70
70456;DHT22;57916;51.996;5.180;2024-01-10T08:46:37;-0.10;55.60
70456;DHT22;57916;51.996;5.180;2024-01-10T08:49:05;0.00;55.40
70456;DHT22;57916;51.996;5.180;2024-01-10T08:51:32;0.00;55.10
70456;DHT22;57916;51.996;5.180;2024-01-10T08:54:00;0.00;54.50
70456;DHT22;57916;51.996;5.180;2024-01-10T08:56:28;0.00;54.50
70456;DHT22;57916;51.996;5.180;2024-01-10T08:58:55;0.00;54.40
70456;DHT22;57916;51.996;5.180;2024-01-10T09:01:22;0.10;54.50
70456;DHT22;57916;51.996;5.180;2024-01-10T09:03:50;0.20;54.50
70456;DHT22;57916;51.996;5.180;2024-01-10T09:06:17;0.30;54.50
70456;DHT22;57916;51.996;5.180;2024-01-10T09:08:44;0.50;54.50
70456;DHT22;57916;51.996;5.180;2024-01-10T09:11:11;0.70;54.30
70456;DHT22;57916;51.996;5.180;2024-01-10T09:13:38;0.80;53.70
70456;DHT22;57916;51.996;5.180;2024-01-10T09:16:07;0.90;53.30
70456;DHT22;57916;51.996;5.180;2024-01-10T09:18:34;1.00;52.40
70456;DHT22;57916;51.996;5.180;2024-01-10T09:21:01;1.10;52.50
70456;DHT22;57916;51.996;5.180;2024-01-10T09:23:28;1.20;52.20
70456;DHT22;57916;51.996;5.180;2024-01-10T09:25:55;1.40;52.10
70456;DHT22;57916;51.996;5.180;2024-01-10T09:28:22;1.50;51.40
70456;DHT22;57916;51.996;5.180;2024-01-10T09:30:49;1.50;51.30
70456;DHT22;57916;51.996;5.180;2024-01-10T09:33:16;1.60;50.90
70456;DHT22;57916;51.996;5.180;2024-01-10T09:35:43;1.70;50.60
70456;DHT22;57916;51.996;5.180;2024-01-10T09:38:10;1.70;50.50
70456;DHT22;57916;51.996;5.180;2024-01-10T09:40:37;1.80;50.60
70456;DHT22;57916;51.996;5.180;2024-01-10T09:43:05;1.90;50.10
70456;DHT22;57916;51.996;5.180;2024-01-10T09:45:35;1.90;49.80
70456;DHT22;57916;51.996;5.180;2024-01-10T09:48:03;2.00;49.70
70456;DHT22;57916;51.996;5.180;2024-01-10T09:50:31;2.10;50.70
70456;DHT22;57916;51.996;5.180;2024-01-10T09:53:07;2.20;49.60
70456;DHT22;57916;51.996;5.180;2024-01-10T09:55:38;2.30;48.70
70456;DHT22;57916;51.996;5.180;2024-01-10T09:58:06;2.30;48.60
70456;DHT22;57916;51.996;5.180;2024-01-10T10:00:36;2.30;48.30
70456;DHT22;57916;51.996;5.180;2024-01-10T10:03:10;2.40;48.40
70456;DHT22;57916;51.996;5.180;2024-01-10T10:05:40;2.40;47.20
70456;DHT22;57916;51.996;5.180;2024-01-10T10:08:14;2.40;47.20
70456;DHT22;57916;51.996;5.180;2024-01-10T10:10:49;2.50;47.30
70456;DHT22;57916;51.996;5.180;2024-01-10T10:13:29;2.50;46.50
70456;DHT22;57916;51.996;5.180;2024-01-10T10:16:02;2.50;46.30
70456;DHT22;57916;51.996;5.180;2024-01-10T10:18:31;2.60;46.80
70456;DHT22;57916;51.996;5.180;2024-01-10T10:21:09;2.60;46.60
70456;DHT22;57916;51.996;5.180;2024-01-10T10:23:38;2.70;46.40
70456;DHT22;57916;51.996;5.180;2024-01-10T10:26:16;2.70;46.10
70456;DHT22;57916;51.996;5.180;2024-01-10T10:28:48;2.70;46.10
70456;DHT22;57916;51.996;5.180;2024-01-10T10:31:17;2.70;45.30
70456;DHT22;57916;51.996;5.180;2024-01-10T10:33:45;2.70;45.40
70456;DHT22;57916;51.996;5.180;2024-01-10T10:36:15;2.70;45.50
70456;DHT22;57916;51.996;5.180;2024-01-10T10:38:43;2.80;45.50
70456;DHT22;57916;51.996;5.180;2024-01-10T10:41:10;2.90;45.40
70456;DHT22;57916;51.996;5.180;2024-01-10T10:43:38;2.80;44.40
70456;DHT22;57916;51.996;5.180;2024-01-10T10:46:09;2.80;44.00
70456;DHT22;57916;51.996;5.180;2024-01-10T10:48:39;2.80;43.60
70456;DHT22;57916;51.996;5.180;2024-01-10T10:51:23;2.80;43.70
70456;DHT22;57916;51.996;5.180;2024-01-10T10:53:55;2.80;43.00
70456;DHT22;57916;51.996;5.180;2024-01-10T10:56:23;2.80;42.80
70456;DHT22;57916;51.996;5.180;2024-01-10T10:58:51;2.80;42.80
70456;DHT22;57916;51.996;5.180;2024-01-10T11:01:19;2.80;42.70
70456;DHT22;57916;51.996;5.180;2024-01-10T11:03:47;2.90;42.50
70456;DHT22;57916;51.996;5.180;2024-01-10T11:06:15;3.00;43.50
70456;DHT22;57916;51.996;5.180;2024-01-10T11:08:56;3.10;42.40
70456;DHT22;57916;51.996;5.180;2024-01-10T11:12:06;3.10;42.40
70456;DHT22;57916;51.996;5.180;2024-01-10T11:15:13;3.30;42.40
70456;DHT22;57916;51.996;5.180;2024-01-10T11:20:18;3.50;42.00
70456;DHT22;57916;51.996;5.180;2024-01-10T11:23:10;3.50;42.00
70456;DHT22;57916;51.996;5.180;2024-01-10T11:25:42;3.60;42.00
70456;DHT22;57916;51.996;5.180;2024-01-10T11:28:12;3.60;41.90
70456;DHT22;57916;51.996;5.180;2024-01-10T11:30:53;3.60;41.70
70456;DHT22;57916;51.996;5.180;2024-01-10T11:33:39;3.60;41.60
70456;DHT22;57916;51.996;5.180;2024-01-10T11:36:26;3.60;41.70
70456;DHT22;57916;51.996;5.180;2024-01-10T11:38:58;3.60;41.60
70456;DHT22;57916;51.996;5.180;2024-01-10T11:41:34;3.70;41.90
70456;DHT22;57916;51.996;5.180;2024-01-10T11:46:49;3.80;41.10
70456;DHT22;57916;51.996;5.180;2024-01-10T11:49:19;3.80;40.60
70456;DHT22;57916;51.996;5.180;2024-01-10T11:51:50;3.90;40.30
70456;DHT22;57916;51.996;5.180;2024-01-10T11:54:43;3.90;40.90
70456;DHT22;57916;51.996;5.180;2024-01-10T11:57:29;4.00;41.20
70456;DHT22;57916;51.996;5.180;2024-01-10T11:59:59;4.00;40.40
70456;DHT22;57916;51.996;5.180;2024-01-10T12:02:30;4.10;40.60
70456;DHT22;57916;51.996;5.180;2024-01-10T12:04:58;4.00;40.40
70456;DHT22;57916;51.996;5.180;2024-01-10T12:07:25;4.00;39.60
70456;DHT22;57916;51.996;5.180;2024-01-10T12:09:53;4.00;39.80
70456;DHT22;57916;51.996;5.180;2024-01-10T12:12:21;4.10;39.80
70456;DHT22;57916;51.996;5.180;2024-01-10T12:14:50;4.20;40.20
70456;DHT22;57916;51.996;5.180;2024-01-10T12:17:18;4.30;39.80
70456;DHT22;57916;51.996;5.180;2024-01-10T12:19:46;4.30;39.70
70456;DHT22;57916;51.996;5.180;2024-01-10T12:22:18;4.40;39.90
70456;DHT22;57916;51.996;5.180;2024-01-10T12:24:49;4.40;39.50
70456;DHT22;57916;51.996;5.180;2024-01-10T12:27:18;4.40;39.30
70456;DHT22;57916;51.996;5.180;2024-01-10T12:29:52;4.50;39.70
70456;DHT22;57916;51.996;5.180;2024-01-10T12:32:21;4.50;39.00
70456;DHT22;57916;51.996;5.180;2024-01-10T12:35:01;4.40;39.20
70456;DHT22;57916;51.996;5.180;2024-01-10T12:37:29;4.50;39.40
70456;DHT22;57916;51.996;5.180;2024-01-10T12:39:57;4.60;39.70
70456;DHT22;57916;51.996;5.180;2024-01-10T12:42:24;4.60;39.40
70456;DHT22;57916;51.996;5.180;2024-01-10T12:44:51;4.70;39.50
70456;DHT22;57916;51.996;5.180;2024-01-10T12:47:22;4.70;39.50
70456;DHT22;57916;51.996;5.180;2024-01-10T12:49:50;4.70;39.60
70456;DHT22;57916;51.996;5.180;2024-01-10T12:52:17;4.80;39.70
70456;DHT22;57916;51.996;5.180;2024-01-10T12:54:50;4.80;39.50
70456;DHT22;57916;51.996;5.180;2024-01-10T12:57:17;4.80;40.00
70456;DHT22;57916;51.996;5.180;2024-01-10T12:59:44;4.80;39.30
70456;DHT22;57916;51.996;5.180;2024-01-10T13:02:12;4.80;39.30
70456;DHT22;57916;51.996;5.180;2024-01-10T13:04:39;4.80;39.40
70456;DHT22;57916;51.996;5.180;2024-01-10T13:07:06;4.90;39.50
70456;DHT22;57916;51.996;5.180;2024-01-10T13:09:33;4.90;39.50
70456;DHT22;57916;51.996;5.180;2024-01-10T13:12:03;5.00;39.20
70456;DHT22;57916;51.996;5.180;2024-01-10T13:14:30;4.90;39.10
70456;DHT22;57916;51.996;5.180;2024-01-10T13:16:58;4.90;38.70
70456;DHT22;57916;51.996;5.180;2024-01-10T13:19:26;4.90;38.80
70456;DHT22;57916;51.996;5.180;2024-01-10T13:21:54;4.90;38.80
70456;DHT22;57916;51.996;5.180;2024-01-10T13:24:21;4.90;38.80
70456;DHT22;57916;51.996;5.180;2024-01-10T13:26:48;4.90;38.80
70456;DHT22;57916;51.996;5.180;2024-01-10T13:29:16;4.90;38.80
70456;DHT22;57916;51.996;5.180;2024-01-10T13:31:43;4.90;38.70
70456;DHT22;57916;51.996;5.180;2024-01-10T13:34:10;4.90;38.70
70456;DHT22;57916;51.996;5.180;2024-01-10T13:36:38;4.90;38.90
70456;DHT22;57916;51.996;5.180;2024-01-10T13:39:06;4.80;38.50
70456;DHT22;57916;51.996;5.180;2024-01-10T13:41:33;4.80;38.40
70456;DHT22;57916;51.996;5.180;2024-01-10T13:44:00;4.80;38.60
70456;DHT22;57916;51.996;5.180;2024-01-10T13:46:27;4.80;38.60
70456;DHT22;57916;51.996;5.180;2024-01-10T13:48:54;4.80;38.70
70456;DHT22;57916;51.996;5.180;2024-01-10T13:51:21;4.90;38.60
70456;DHT22;57916;51.996;5.180;2024-01-10T13:53:48;4.90;38.70
70456;DHT22;57916;51.996;5.180;2024-01-10T13:56:15;4.90;38.60
70456;DHT22;57916;51.996;5.180;2024-01-10T13:58:42;4.90;38.60
70456;DHT22;57916;51.996;5.180;2024-01-10T14:01:09;4.90;38.70
70456;DHT22;57916;51.996;5.180;2024-01-10T14:03:36;4.90;38.60
70456;DHT22;57916;51.996;5.180;2024-01-10T14:06:03;4.90;38.60
70456;DHT22;57916;51.996;5.180;2024-01-10T14:08:31;4.80;38.60
70456;DHT22;57916;51.996;5.180;2024-01-10T14:10:58;4.80;38.70
70456;DHT22;57916;51.996;5.180;2024-01-10T14:13:25;4.80;38.80
70456;DHT22;57916;51.996;5.180;2024-01-10T14:15:52;4.80;38.90
70456;DHT22;57916;51.996;5.180;2024-01-10T14:18:19;4.80;38.90
70456;DHT22;57916;51.996;5.180;2024-01-10T14:20:46;4.80;39.00
70456;DHT22;57916;51.996;5.180;2024-01-10T14:23:13;4.80;38.90
70456;DHT22;57916;51.996;5.180;2024-01-10T14:25:40;4.80;39.00
70456;DHT22;57916;51.996;5.180;2024-01-10T14:28:07;4.80;39.20
70456;DHT22;57916;51.996;5.180;2024-01-10T14:30:34;4.80;39.10
70456;DHT22;57916;51.996;5.180;2024-01-10T14:33:01;4.70;38.90
70456;DHT22;57916;51.996;5.180;2024-01-10T14:35:28;4.70;38.80
70456;DHT22;57916;51.996;5.180;2024-01-10T14:37:56;4.70;38.90
70456;DHT22;57916;51.996;5.180;2024-01-10T14:40:23;4.70;38.90
70456;DHT22;57916;51.996;5.180;2024-01-10T14:42:50;4.70;39.10
70456;DHT22;57916;51.996;5.180;2024-01-10T14:45:17;4.70;39.10
70456;DHT22;57916;51.996;5.180;2024-01-10T14:47:45;4.70;39.30
70456;DHT22;57916;51.996;5.180;2024-01-10T14:50:12;4.70;39.60
70456;DHT22;57916;51.996;5.180;2024-01-10T14:52:39;4.70;39.60
70456;DHT22;57916;51.996;5.180;2024-01-10T14:55:06;4.60;39.40
70456;DHT22;57916;51.996;5.180;2024-01-10T14:57:33;4.60;39.50
70456;DHT22;57916;51.996;5.180;2024-01-10T15:00:00;4.50;39.60
70456;DHT22;57916;51.996;5.180;2024-01-10T15:02:27;4.50;39.60
70456;DHT22;57916;51.996;5.180;2024-01-10T15:04:54;4.40;39.80
70456;DHT22;57916;51.996;5.180;2024-01-10T15:07:21;4.40;39.70
70456;DHT22;57916;51.996;5.180;2024-01-10T15:09:48;4.40;39.90
70456;DHT22;57916;51.996;5.180;2024-01-10T15:12:15;4.40;40.00
70456;DHT22;57916;51.996;5.180;2024-01-10T15:14:42;4.30;39.80
70456;DHT22;57916;51.996;5.180;2024-01-10T15:17:09;4.30;39.90
70456;DHT22;57916;51.996;5.180;2024-01-10T15:19:39;4.30;39.90
70456;DHT22;57916;51.996;5.180;2024-01-10T15:22:06;4.30;40.10
70456;DHT22;57916;51.996;5.180;2024-01-10T15:24:34;4.20;40.20
70456;DHT22;57916;51.996;5.180;2024-01-10T15:27:01;4.20;40.20
70456;DHT22;57916;51.996;5.180;2024-01-10T15:29:33;4.20;40.30
70456;DHT22;57916;51.996;5.180;2024-01-10T15:32:00;4.10;40.40
70456;DHT22;57916;51.996;5.180;2024-01-10T15:34:28;4.10;40.50
70456;DHT22;57916;51.996;5.180;2024-01-10T15:36:55;4.10;40.70
70456;DHT22;57916;51.996;5.180;2024-01-10T15:39:22;4.00;40.60
70456;DHT22;57916;51.996;5.180;2024-01-10T15:41:51;4.00;40.90
70456;DHT22;57916;51.996;5.180;2024-01-10T15:44:19;4.00;40.90
70456;DHT22;57916;51.996;5.180;2024-01-10T15:46:48;4.00;41.00
70456;DHT22;57916;51.996;5.180;2024-01-10T15:49:15;4.00;41.10
70456;DHT22;57916;51.996;5.180;2024-01-10T15:51:42;3.90;41.20
70456;DHT22;57916;51.996;5.180;2024-01-10T15:54:09;3.90;41.30
70456;DHT22;57916;51.996;5.180;2024-01-10T15:56:37;3.90;41.40